Latest Weather Observations for Lord Howe Island

IDN60801

Issued at 11:32 pm EDT Monday 23 January 2017 (issued every 30 minutes, with the page automatically refreshed every 10 minutes)

About weather observations | Map of weather stations | Latest weather observations for NSW | Other Formats
Station Details ID: 200839 Name: LORD HOWE ISLAND AERO Lat: -31.54 Lon: 159.08 Height: 5.0 m
Data from the previous 72 hours. | See also: Recent months at Lord Howe Island
Date/Time
EDT
Temp
°C
App
Temp
°C
Dew
Point
°C
Rel
Hum
%
Delta-T
°C
Wind Press
QNH
hPa
Press
MSL
hPa
Rain since
9am
mm
Dir  Spd
km/h
Gust
km/h
Spd
kts
Gust
kts
23/11:30pm 22.4 20.4 14.0 59 4.9 NE 17 24 9 13 1018.8 - 0.0
23/11:00pm 22.6 20.0 13.2 55 5.4 NE 19 24 10 13 1018.9 - 0.0
23/10:30pm 22.5 20.2 12.9 54 5.5 ENE 17 26 9 14 1019.0 - 0.0
23/10:00pm 22.5 20.2 12.9 54 5.5 NE 17 20 9 11 1019.1 - 0.0
23/09:30pm 22.5 19.7 12.7 54 5.6 NE 19 26 10 14 1019.0 - 0.0
23/09:00pm 22.6 20.6 12.8 54 5.6 ENE 15 20 8 11 1018.7 1018.7 0.0
23/08:30pm 22.5 20.2 13.1 55 5.4 ENE 17 22 9 12 1018.5 - 0.0
23/08:00pm 22.5 20.5 13.9 58 5.0 ENE 17 20 9 11 1018.2 - 0.0
23/07:30pm 22.5 21.1 14.5 60 4.7 ENE 15 20 8 11 1018.1 - 0.0
23/07:00pm 22.9 21.6 13.6 55 5.4 ENE 13 17 7 9 1017.9 - 0.0
23/06:30pm 23.5 21.8 13.7 54 5.7 ENE 15 19 8 10 1017.5 - 0.0
23/06:00pm 23.7 22.1 12.7 50 6.3 E 13 17 7 9 1017.4 1017.4 0.0
23/05:30pm 24.1 22.4 12.4 48 6.7 ENE 13 19 7 10 1017.1 - 0.0
23/05:00pm 24.2 22.4 12.1 46 6.9 E 13 19 7 10 1017.2 - 0.0
23/04:30pm 24.0 21.7 11.8 46 6.9 E 15 19 8 10 1017.2 - 0.0
23/04:00pm 24.8 23.1 12.6 46 7.0 E 13 19 7 10 1017.5 - 0.0
23/03:30pm 24.6 22.2 11.5 44 7.4 ENE 15 19 8 10 1017.8 - 0.0
23/03:00pm 25.1 22.7 11.5 42 7.7 E 15 22 8 12 1018.2 1018.2 0.0
23/02:30pm 25.2 22.9 11.8 43 7.6 E 15 22 8 12 1018.1 - 0.0
23/02:00pm 25.3 22.9 11.3 41 7.9 E 15 20 8 11 1018.2 - 0.0
23/01:30pm 24.9 22.6 11.9 44 7.4 E 15 19 8 10 1018.3 - 0.0
23/01:00pm 25.0 22.7 11.6 43 7.6 E 15 22 8 12 1018.4 - 0.0
23/12:30pm 25.4 23.1 11.9 43 7.7 E 15 20 8 11 1018.7 - 0.0
23/12:00pm 24.7 22.6 12.3 46 7.1 E 15 22 8 12 1018.8 1018.8 0.0
23/11:30am 24.7 22.1 12.0 45 7.2 E 17 20 9 11 1018.8 - 0.0
23/11:00am 25.5 23.5 12.7 45 7.4 E 15 20 8 11 1018.8 - 0.0
23/10:30am 24.3 22.1 12.0 46 7.0 E 15 20 8 11 1018.9 - 0.0
23/10:00am 23.5 21.0 12.4 49 6.3 E 17 22 9 12 1018.9 - 0.0
23/09:30am 23.0 20.8 12.0 50 6.2 E 15 20 8 11 1019.0 - 0.0
23/09:00am 22.9 21.2 12.5 52 5.9 E 13 15 7 8 1019.1 1019.1 0.0
23/08:30am 22.7 21.5 12.7 53 5.7 E 11 17 6 9 1018.9 - 0.0
23/08:00am 22.7 20.8 13.1 54 5.5 E 15 19 8 10 1018.8 - 0.0
23/07:30am 22.5 22.2 13.3 56 5.3 ESE 7 15 4 8 1018.4 - 0.0
23/07:00am 21.8 21.8 13.7 60 4.7 SSE 6 9 3 5 1018.0 - 0.0
23/06:30am 21.1 22.1 14.4 65 3.9 S 2 6 1 3 1017.7 - 0.0
23/06:00am 21.4 21.7 13.4 60 4.6 SSW 4 7 2 4 1017.2 1017.2 0.0
23/05:30am 21.1 20.9 13.0 60 4.6 SE 6 9 3 5 1016.8 - 0.0
23/05:00am 21.5 21.0 12.5 56 5.1 SSE 7 9 4 5 1016.5 - 0.0
23/04:30am 20.9 20.6 12.8 60 4.6 ESE 6 9 3 5 1016.1 - 0.0
23/04:00am 21.6 20.6 12.4 55 5.2 ESE 9 15 5 8 1015.9 - 0.0
23/03:30am 21.8 20.0 12.2 54 5.4 ENE 13 20 7 11 1016.1 - 0.0
23/03:00am 21.8 19.8 12.8 56 5.1 E 15 19 8 10 1016.2 1016.2 0.0
23/02:30am 21.8 20.4 13.3 58 4.9 E 13 19 7 10 1016.3 - 0.0
23/02:00am 21.8 20.3 13.1 57 5.0 E 13 20 7 11 1016.5 - 0.0
23/01:30am 21.8 20.1 13.5 59 4.8 E 15 22 8 12 1016.7 - 0.0
23/01:00am 21.8 20.8 13.3 58 4.9 ESE 11 20 6 11 1016.9 - 0.0
23/12:30am 21.9 19.4 13.6 59 4.8 E 19 26 10 14 1017.2 - 0.0
23/12:00am 21.9 20.1 13.2 57 5.0 E 15 24 8 13 1017.4 1017.4 0.0
 
Date/Time
EDT
Temp
°C
App
Temp
°C
Dew
Point
°C
Rel
Hum
%
Delta-T
°C
Wind Press
QNH
hPa
Press
MSL
hPa
Rain since
9am
mm
Dir  Spd
km/h
Gust
km/h
Spd
kts
Gust
kts
22/11:30pm 21.5 21.0 12.7 57 5.0 ESE 7 11 4 6 1017.4 - 0.0
22/11:00pm 21.7 20.8 12.5 56 5.2 SE 9 15 5 8 1017.6 - 0.0
22/10:30pm 21.8 21.8 14.3 62 4.4 SE 7 13 4 7 1017.6 - 0.0
22/10:00pm 21.5 20.6 12.5 56 5.1 SE 9 15 5 8 1017.7 - 0.0
22/09:30pm 22.0 20.7 12.5 54 5.4 ESE 11 19 6 10 1017.7 - 0.0
22/09:00pm 21.8 21.7 13.3 58 4.9 S 6 13 3 7 1017.6 1017.6 0.0
22/08:30pm 21.7 20.7 12.3 55 5.3 ESE 9 13 5 7 1017.4 - 0.0
22/08:00pm 22.3 21.5 12.8 55 5.4 SW 9 19 5 10 1017.1 - 0.0
22/07:30pm 22.3 21.9 14.1 59 4.8 SSE 9 20 5 11 1016.6 - 0.0
22/07:00pm 22.3 21.2 15.2 64 4.2 E 15 28 8 15 1016.3 - 0.0
22/06:30pm 22.6 22.3 14.4 60 4.8 WSW 9 15 5 8 1016.0 - 0.0
22/06:00pm 22.3 22.6 14.9 63 4.4 W 7 15 4 8 1015.8 1015.8 0.0
22/05:30pm 23.0 21.6 13.5 55 5.5 SW 13 22 7 12 1015.5 - 0.0
22/05:00pm 23.2 21.9 13.8 55 5.5 WSW 13 22 7 12 1015.5 - 0.0
22/04:30pm 23.5 23.6 14.5 57 5.3 SSW 7 20 4 11 1015.4 - 0.0
22/04:00pm 23.1 22.8 14.4 58 5.1 SSW 9 19 5 10 1015.5 - 0.0
22/03:30pm 23.3 23.0 14.5 57 5.2 SSW 9 22 5 12 1015.6 - 0.0
22/03:00pm 23.4 23.0 14.0 55 5.5 SSE 9 22 5 12 1015.6 1015.6 0.0
22/02:30pm 23.4 21.7 12.5 50 6.2 SW 13 28 7 15 1015.7 - 0.0
22/02:00pm 24.4 23.1 11.4 44 7.3 SW 9 15 5 8 1015.8 - 0.0
22/01:30pm 24.7 23.5 11.6 44 7.4 SW 9 22 5 12 1015.8 - 0.0
22/01:00pm 23.8 21.9 11.7 46 6.8 SSW 13 22 7 12 1015.9 - 0.0
22/12:30pm 23.7 21.6 12.3 48 6.5 SW 15 26 8 14 1016.0 - 0.0
22/12:00pm 23.8 22.7 13.1 51 6.2 SW 11 22 6 12 1015.9 1015.9 0.0
22/11:30am 23.7 22.8 12.5 49 6.4 SSW 9 17 5 9 1015.9 - 0.0
22/11:00am 23.8 22.5 12.6 49 6.4 SW 11 20 6 11 1015.8 - 0.0
22/10:30am 23.5 22.5 12.2 49 6.4 S 9 13 5 7 1016.0 - 0.0
22/10:00am 23.1 21.3 12.2 50 6.2 SW 13 26 7 14 1015.9 - 0.0
22/09:30am 22.8 20.7 11.3 48 6.4 SW 13 26 7 14 1015.5 - 0.0
22/09:00am 22.7 19.9 10.0 44 6.9 SW 15 24 8 13 1015.4 1015.4 0.0
22/08:30am 22.6 19.6 11.9 50 6.0 SW 19 32 10 17 1015.3 - 0.0
22/08:00am 22.4 19.4 10.6 47 6.5 SSW 17 33 9 18 1015.1 - 0.0
22/07:30am 22.2 19.2 11.9 52 5.8 SSW 19 37 10 20 1014.9 - 0.0
22/07:00am 21.9 18.7 10.1 47 6.4 SSW 17 30 9 16 1014.6 - 0.0
22/06:30am 21.8 18.3 10.9 50 6.0 SW 20 41 11 22 1014.1 - 0.0
22/06:00am 21.8 19.3 10.9 50 6.0 SW 15 28 8 15 1013.7 1013.7 0.0
22/05:30am 21.8 18.6 11.8 53 5.6 SSW 20 37 11 20 1013.0 - 0.0
22/05:00am 21.8 19.0 12.7 56 5.2 SSW 19 37 10 20 1012.7 - 0.0
22/04:30am 21.9 18.8 11.7 52 5.7 SSW 19 44 10 24 1012.2 - 0.0
22/04:00am 22.0 18.5 12.3 54 5.5 SSW 22 41 12 22 1011.9 - 0.0
22/03:30am 22.0 19.2 13.3 57 5.0 SSW 20 39 11 21 1011.9 - 0.0
22/03:00am 22.2 19.4 12.5 54 5.5 SSW 19 35 10 19 1011.8 1011.8 0.0
22/02:30am 22.2 19.3 12.9 55 5.3 SSW 20 39 11 21 1012.0 - 0.0
22/02:00am 22.1 19.3 11.5 51 5.9 SSW 17 35 9 19 1011.9 - 0.0
22/01:30am 22.2 18.2 13.1 56 5.2 SSW 26 39 14 21 1012.1 - 0.0
22/01:00am 22.4 19.2 13.2 56 5.3 SSW 22 43 12 23 1012.2 - 0.0
22/12:30am 22.4 20.2 13.4 56 5.2 SW 17 35 9 19 1012.2 - 0.0
22/12:00am 22.6 19.6 12.4 52 5.8 SSW 20 39 11 21 1012.5 1012.5 0.0
 
Date/Time
EDT
Temp
°C
App
Temp
°C
Dew
Point
°C
Rel
Hum
%
Delta-T
°C
Wind Press
QNH
hPa
Press
MSL
hPa
Rain since
9am
mm
Dir  Spd
km/h
Gust
km/h
Spd
kts
Gust
kts
21/11:30pm 22.5 19.6 12.3 52 5.8 SSW 19 37 10 20 1012.3 - 0.0
21/11:00pm 22.4 18.1 12.1 52 5.8 SSW 26 43 14 23 1012.3 - 0.0
21/10:30pm 22.7 20.0 12.9 54 5.6 S 19 32 10 17 1012.1 - 0.0
21/10:00pm 22.8 19.5 11.6 49 6.3 SSW 20 32 11 17 1011.8 - 0.0
21/09:30pm 22.9 19.0 13.2 54 5.6 SSW 26 41 14 22 1011.5 - 0.0
21/09:00pm 23.1 19.2 13.2 53 5.7 SSW 26 39 14 21 1010.9 1010.9 0.0
21/08:30pm 22.9 19.8 14.6 59 4.9 SSW 24 39 13 21 1010.5 - 0.0
21/08:00pm 22.9 19.8 14.6 59 4.9 SSW 24 37 13 20 1010.2 - 0.0
21/07:30pm 22.5 20.9 16.4 68 3.7 SSW 20 28 11 15 1009.9 - 0.0
21/07:00pm 22.9 21.7 17.1 70 3.6 SW 19 30 10 16 1009.2 - 0.0
21/06:30pm 23.5 22.3 17.4 68 3.8 SSW 20 32 11 17 1008.5 - 0.0
21/06:00pm 24.0 21.6 16.3 62 4.7 SSW 24 44 13 24 1007.9 1007.9 0.0
21/05:30pm 24.3 22.0 16.7 62 4.7 SW 24 37 13 20 1007.4 - 0.0
21/05:00pm 23.9 22.1 16.9 65 4.3 SW 22 33 12 18 1007.2 - 0.0
21/04:30pm 24.5 21.6 17.1 63 4.6 SW 28 44 15 24 1006.7 - 0.0
21/04:00pm 24.5 21.3 15.4 57 5.5 SW 26 39 14 21 1006.6 - 0.0
21/03:30pm 24.8 21.7 15.6 56 5.6 SW 26 48 14 26 1006.5 - 0.0
21/03:00pm 24.5 21.1 15.8 58 5.3 SW 28 54 15 29 1006.3 1006.3 0.0
21/02:42pm 25.0 22.0 16.8 60 5.1 SW 28 48 15 26 1006.1 - 0.0
21/02:30pm 24.6 21.9 16.5 60 5.0 SW 26 39 14 21 1006.1 - 0.0
21/02:00pm 25.1 22.3 17.4 62 4.8 SW 28 43 15 23 1005.9 - 0.0
21/01:30pm 25.3 23.0 17.5 62 4.9 SW 26 39 14 21 1005.7 - 0.0
21/01:00pm 24.6 21.1 17.4 64 4.5 SW 32 46 17 25 1005.5 - 0.0
21/12:30pm 25.0 21.6 17.7 64 4.6 SW 32 44 17 24 1005.2 - 0.0
21/12:00pm 24.6 21.4 18.1 67 4.1 SW 32 43 17 23 1004.9 1004.9 0.0
21/11:30am 25.2 22.1 18.4 66 4.3 SW 32 43 17 23 1004.7 - 0.0
21/11:00am 24.7 21.6 18.4 68 4.0 SW 32 46 17 25 1004.4 - 0.0
21/10:30am 24.6 21.9 18.5 69 3.9 SW 30 41 16 22 1004.2 - 0.0
21/10:07am 24.4 21.4 18.7 70 3.6 SW 32 44 17 24 1004.0 - 0.0
21/10:00am 24.3 21.3 18.6 70 3.6 SW 32 43 17 23 1003.9 - 0.0
21/09:30am 24.7 23.4 20.7 78 2.6 SW 28 39 15 21 1003.6 - 0.0
21/09:08am 24.0 23.0 20.5 81 2.3 SW 26 35 14 19 1003.4 - 0.0
21/09:00am 24.1 23.0 20.3 79 2.5 SW 26 37 14 20 1003.3 1003.3 1.8
21/08:30am 24.0 23.2 20.0 78 2.6 SW 24 35 13 19 1003.1 - 1.8
21/08:00am 23.9 22.9 19.7 77 2.7 SW 24 33 13 18 1002.8 - 1.8
21/07:33am 23.7 24.3 22.1 91 1.1 SW 22 32 12 17 1002.2 - 1.8
21/07:30am 23.7 24.6 21.9 90 1.2 SW 20 30 11 16 1002.1 - 1.8
21/07:27am 23.7 24.7 22.2 91 1.0 SW 20 30 11 16 1002.1 - 1.8
21/07:13am 23.4 23.0 22.4 94 0.7 SW 28 46 15 25 1001.9 - 1.8
21/07:02am 23.9 22.4 22.7 93 0.8 SW 35 44 19 24 1001.8 - 1.6
21/07:00am 24.4 22.9 23.4 94 0.7 W 37 76 20 41 1001.5 - 1.6
21/06:46am 25.0 24.5 23.8 93 0.8 W 33 43 18 23 1001.2 - 1.4
21/06:30am 25.1 24.8 23.8 92 0.9 WSW 32 35 17 19 1001.0 - 1.4
21/06:00am 24.8 24.8 23.8 94 0.7 W 30 39 16 21 1000.9 1000.9 1.4
21/05:30am 24.9 24.5 23.7 93 0.8 W 32 44 17 24 1000.5 - 0.6
21/05:09am 25.0 25.0 23.7 92 0.9 W 30 43 16 23 1000.5 - 0.6
21/05:00am 25.0 25.4 23.7 92 0.9 W 28 41 15 22 1000.4 - 0.6
21/04:55am 25.1 25.4 23.6 91 1.0 W 28 41 15 22 1000.3 - 0.4
21/04:46am 25.3 25.9 23.5 90 1.2 W 26 41 14 22 1000.1 - 0.0
21/04:30am 25.4 25.6 23.4 89 1.4 W 28 41 15 22 1000.1 - 0.0
21/04:00am 25.6 27.2 23.3 87 1.6 WNW 20 44 11 24 999.7 - 0.0
21/03:30am 25.6 26.5 23.4 88 1.5 NW 24 46 13 25 999.8 - 0.0
21/03:22am 25.6 27.3 23.4 88 1.5 NW 20 44 11 24 1000.0 - 0.0
21/03:00am 25.7 27.3 23.2 86 1.7 NW 20 48 11 26 1000.0 1000.0 0.0
21/02:43am 25.7 26.6 23.4 87 1.6 NW 24 41 13 22 1000.5 - 0.0
21/02:30am 25.6 26.9 23.4 88 1.5 NW 22 39 12 21 1000.7 - 0.0
21/02:00am 25.5 27.3 23.2 87 1.6 NNW 19 43 10 23 1001.1 - 0.0
21/01:30am 25.0 27.2 23.2 90 1.2 NNW 17 33 9 18 1000.7 - 0.0
21/01:00am 24.8 27.7 23.2 91 1.1 N 13 22 7 12 1001.5 - 0.0
21/12:30am 24.7 27.1 22.9 90 1.2 NNE 15 30 8 16 1001.8 - 0.0
21/12:06am 24.5 27.7 23.0 91 1.0 NNE 11 19 6 10 1002.4 - 0.0
21/12:00am 24.5 27.2 22.9 91 1.1 NNE 13 22 7 12 1002.2 1002.2 0.0
 
Date/Time
EDT
Temp
°C
App
Temp
°C
Dew
Point
°C
Rel
Hum
%
Delta-T
°C
Wind Press
QNH
hPa
Press
MSL
hPa
Rain since
9am
mm
Dir  Spd
km/h
Gust
km/h
Spd
kts
Gust
kts
20/11:47pm 24.6 27.3 22.8 90 1.2 N 13 32 7 17 1002.7 - 0.0

Other Formats:

Comma delimited format used in spreadsheet applications
http://www.bom.gov.au/fwo/IDN60801/IDN60801.94995.axf

JavaScript Object Notation format (JSON) in row-major order
http://www.bom.gov.au/fwo/IDN60801/IDN60801.94995.json